Time;durP1;ratioP1;P1;durP2;ratioP2;P2;SDS_P1;SDS_P2;PMS_P1;PMS_P2;Temp;Humidity;BMP_temperature;BMP_pressure;BME280_temperature;BME280_humidity;BME280_pressure;Samples;Min_cycle;Max_cycle;Signal;HPM_P1;HPM_P2
2022/05/03 00:02:25;;;;;;;10.70;9.70;;;12.30;99.90;;;;;;5028826;28;20423;-75
2022/05/03 00:05:07;;;;;;;10.13;9.10;;;12.20;99.90;;;;;;5029071;28;20460;-75
2022/05/03 00:08:00;;;;;;;11.20;9.90;;;12.20;99.90;;;;;;5028737;28;20838;-75
2022/05/03 00:11:00;;;;;;;11.00;9.87;;;12.10;99.90;;;;;;5028835;28;20504;-75
2022/05/03 00:13:35;;;;;;;10.90;9.80;;;12.10;99.90;;;;;;5028864;28;20807;-75
2022/05/03 00:16:06;;;;;;;11.33;9.93;;;12.10;99.90;;;;;;5028734;28;20433;-75
2022/05/03 00:18:33;;;;;;;11.80;10.60;;;11.90;99.90;;;;;;5028618;28;20443;-75
2022/05/03 00:20:59;;;;;;;11.97;10.73;;;11.90;99.90;;;;;;5028637;28;20429;-75
2022/05/03 00:23:25;;;;;;;11.13;10.00;;;11.90;99.90;;;;;;5028670;28;20459;-74
2022/05/03 00:25:51;;;;;;;12.47;10.67;;;11.70;99.90;;;;;;5028661;28;20894;-75
2022/05/03 00:28:19;;;;;;;10.37;9.37;;;11.80;99.90;;;;;;5010736;28;20449;-75
2022/05/03 00:30:46;;;;;;;9.33;8.53;;;11.90;99.90;;;;;;5028789;28;20457;-75
2022/05/03 00:33:15;;;;;;;10.40;9.40;;;11.90;99.90;;;;;;5028671;28;20503;-76
2022/05/03 00:35:41;;;;;;;15.07;10.17;;;12.00;99.90;;;;;;5010638;28;20793;-76
2022/05/03 00:38:07;;;;;;;14.93;11.00;;;11.80;99.90;;;;;;4994418;28;20453;-76
2022/05/03 00:40:33;;;;;;;13.70;10.33;;;11.70;99.90;;;;;;5028572;28;20421;-75
2022/05/03 00:43:11;;;;;;;11.30;9.60;;;11.70;99.90;;;;;;5028369;28;20190;-76
2022/05/03 00:45:49;;;;;;;10.83;9.67;;;11.70;99.90;;;;;;5028526;28;20413;-76
2022/05/03 00:49:04;;;;;;;13.63;10.83;;;11.50;99.90;;;;;;5028383;28;20440;-76
2022/05/03 00:51:42;;;;;;;10.73;9.40;;;11.50;99.90;;;;;;4928562;29;20998;-76
2022/05/03 00:54:29;;;;;;;10.90;9.87;;;11.50;99.90;;;;;;4928740;29;20462;-76
2022/05/03 00:57:26;;;;;;;13.40;10.67;;;11.50;99.90;;;;;;4997424;28;20923;-75
2022/05/03 01:00:11;;;;;;;12.20;9.97;;;11.40;99.90;;;;;;5028793;28;20449;-75
2022/05/03 01:03:15;;;;;;;18.43;11.13;;;11.40;99.90;;;;;;5029169;28;20457;-76
2022/05/03 01:06:18;;;;;;;10.90;9.90;;;11.30;99.90;;;;;;5029116;28;20437;-75
2022/05/03 01:09:05;;;;;;;11.70;10.37;;;11.20;99.90;;;;;;5028653;28;21139;-75
2022/05/03 01:11:53;;;;;;;16.10;10.40;;;11.30;99.90;;;;;;5028464;28;20944;-76
2022/05/03 01:15:00;;;;;;;13.87;11.53;;;11.00;99.90;;;;;;5032372;28;20422;-75
2022/05/03 01:17:43;;;;;;;9.97;8.97;;;10.90;99.90;;;;;;5032252;28;20487;-75
2022/05/03 01:20:11;;;;;;;12.23;9.77;;;10.90;99.90;;;;;;5032652;28;20918;-75
2022/05/03 01:22:51;;;;;;;10.30;9.30;;;10.80;99.90;;;;;;5018077;28;20409;-75
2022/05/03 01:25:36;;;;;;;7.90;7.10;;;10.70;99.90;;;;;;5034097;28;20462;-76
2022/05/03 01:28:23;;;;;;;9.50;8.53;;;10.60;99.90;;;;;;5049647;28;20451;-76
2022/05/03 01:30:50;;;;;;;8.37;7.57;;;10.60;99.90;;;;;;5038476;28;20445;-75
2022/05/03 01:33:32;;;;;;;9.10;7.53;;;10.50;99.90;;;;;;5055862;28;20902;-75
2022/05/03 01:36:00;;;;;;;8.93;8.00;;;10.40;99.90;;;;;;5055546;28;20480;-75
2022/05/03 01:38:59;;;;;;;9.53;8.20;;;10.40;99.90;;;;;;5040560;28;20459;-75
2022/05/03 01:41:56;;;;;;;8.57;7.77;;;10.30;99.90;;;;;;5033886;28;20409;-75
2022/05/03 01:44:50;;;;;;;9.70;8.70;;;10.20;99.90;;;;;;5014857;28;20467;-76
2022/05/03 01:47:44;;;;;;;12.43;9.90;;;10.10;99.90;;;;;;5032632;28;20416;-76
2022/05/03 01:50:32;;;;;;;10.03;8.90;;;10.00;99.90;;;;;;5032474;28;20518;-75
2022/05/03 01:53:17;;;;;;;12.73;8.87;;;9.90;99.90;;;;;;5032398;28;20993;-75
2022/05/03 01:56:06;;;;;;;10.67;9.10;;;9.80;99.90;;;;;;5014170;28;21423;-74
2022/05/03 01:58:52;;;;;;;10.30;9.20;;;9.80;99.90;;;;;;5031628;28;20459;-74
2022/05/03 02:01:34;;;;;;;9.30;8.27;;;9.70;99.90;;;;;;5031717;28;20537;-75
2022/05/03 02:04:25;;;;;;;9.73;7.63;;;9.70;99.90;;;;;;5031383;28;20473;-75
2022/05/03 02:07:09;;;;;;;10.17;9.07;;;9.70;99.90;;;;;;5030228;28;20502;-75
2022/05/03 02:10:00;;;;;;;9.33;8.40;;;9.60;99.90;;;;;;5013730;28;20475;-75
2022/05/03 02:12:26;;;;;;;11.10;8.40;;;9.60;99.90;;;;;;5031939;28;20419;-75
2022/05/03 02:14:54;;;;;;;12.83;8.43;;;9.60;99.90;;;;;;5031500;28;20645;-74
2022/05/03 02:17:48;;;;;;;10.57;9.50;;;9.50;99.90;;;;;;5013704;28;20426;-74
2022/05/03 02:20:49;;;;;;;10.43;9.30;;;9.10;99.90;;;;;;5031393;28;20452;-74
2022/05/03 02:23:25;;;;;;;11.40;9.97;;;8.90;99.90;;;;;;5030492;28;20425;-74
2022/05/03 02:26:12;;;;;;;12.53;10.40;;;9.00;99.90;;;;;;5031024;28;20458;-75
2022/05/03 02:28:41;;;;;;;11.77;9.97;;;9.10;99.90;;;;;;5031497;28;20572;-75
2022/05/03 02:31:17;;;;;;;9.97;8.97;;;9.20;99.90;;;;;;5031522;28;20428;-75
2022/05/03 02:34:03;;;;;;;10.80;9.13;;;9.20;99.90;;;;;;5031435;28;20419;-74
2022/05/03 02:36:35;;;;;;;12.40;10.00;;;9.30;99.90;;;;;;5013414;28;20434;-74
2022/05/03 02:39:05;;;;;;;12.30;11.10;;;9.20;99.90;;;;;;5031327;28;20490;-75
2022/05/03 02:41:42;;;;;;;15.00;10.27;;;9.10;99.90;;;;;;5013667;28;20479;-74
2022/05/03 02:44:08;;;;;;;13.30;11.90;;;8.90;99.90;;;;;;5031262;28;20477;-74
2022/05/03 02:47:12;;;;;;;16.53;13.33;;;8.60;99.90;;;;;;5031359;28;20437;-74
2022/05/03 02:49:56;;;;;;;11.90;10.63;;;8.60;99.90;;;;;;4976134;28;20228;-73
2022/05/03 02:52:40;;;;;;;12.30;10.43;;;8.60;99.90;;;;;;5031108;28;21227;-74
2022/05/03 02:55:20;;;;;;;11.10;9.90;;;8.80;99.90;;;;;;5030692;28;20474;-74
2022/05/03 02:58:23;;;;;;;11.27;10.07;;;8.90;99.90;;;;;;5030311;28;21007;-74
2022/05/03 03:04:20;;;;;;;10.27;9.17;;;9.00;99.90;;;;;;5030841;28;20466;-74
2022/05/03 03:06:49;;;;;;;11.73;9.83;;;9.10;99.90;;;;;;5030233;28;20399;-74
2022/05/03 03:09:23;;;;;;;10.70;9.60;;;9.10;99.90;;;;;;5030166;28;20450;-74
2022/05/03 03:11:55;;;;;;;10.10;9.10;;;9.30;99.90;;;;;;5030243;28;20411;-74
2022/05/03 03:14:40;;;;;;;10.90;9.70;;;9.30;99.90;;;;;;5029907;28;20499;-74
2022/05/03 03:17:08;;;;;;;10.20;9.07;;;9.20;99.90;;;;;;5029927;28;21225;-74
2022/05/03 03:20:09;;;;;;;11.80;9.63;;;9.20;99.90;;;;;;5029770;28;20449;-74
2022/05/03 03:22:40;;;;;;;11.70;10.50;;;9.10;99.90;;;;;;5029991;28;20936;-74
2022/05/03 03:25:07;;;;;;;11.90;9.70;;;9.00;99.90;;;;;;5029619;28;20467;-75
2022/05/03 03:27:34;;;;;;;9.53;8.63;;;9.00;99.90;;;;;;5029617;28;20969;-74
2022/05/03 03:30:03;;;;;;;11.77;9.13;;;8.90;99.90;;;;;;5012201;28;20420;-73
2022/05/03 03:32:31;;;;;;;11.47;9.10;;;8.80;99.90;;;;;;5012034;28;20428;-74
2022/05/03 03:34:59;;;;;;;9.30;8.30;;;8.60;99.90;;;;;;5029376;28;20423;-74
2022/05/03 03:37:28;;;;;;;15.20;9.40;;;8.50;99.90;;;;;;5029511;28;20423;-74
2022/05/03 03:39:54;;;;;;;12.07;8.83;;;8.50;99.90;;;;;;5011718;28;20433;-74
2022/05/03 03:42:20;;;;;;;10.10;8.80;;;8.60;99.90;;;;;;5029354;28;20522;-74
2022/05/03 03:44:46;;;;;;;9.70;8.73;;;8.60;99.90;;;;;;5029402;28;20563;-74
2022/05/03 03:47:14;;;;;;;11.27;9.67;;;8.80;99.90;;;;;;5029336;28;20422;-74
2022/05/03 03:49:40;;;;;;;10.60;9.10;;;8.70;99.90;;;;;;5029294;28;20446;-75
2022/05/03 03:52:10;;;;;;;9.70;8.70;;;8.70;99.90;;;;;;5029293;28;20427;-75
2022/05/03 03:54:36;;;;;;;11.23;10.07;;;8.70;99.90;;;;;;5029072;28;20792;-73
2022/05/03 03:57:04;;;;;;;13.33;11.13;;;8.70;99.90;;;;;;5029581;28;20432;-76
2022/05/03 03:59:31;;;;;;;13.13;11.60;;;8.70;99.90;;;;;;5011551;28;20991;-76
2022/05/03 04:01:58;;;;;;;15.83;11.27;;;8.60;99.90;;;;;;5029200;28;21302;-76
2022/05/03 04:04:28;;;;;;;12.93;11.57;;;8.50;99.90;;;;;;5011241;28;20895;-77
2022/05/03 04:06:54;;;;;;;12.20;10.90;;;8.50;99.90;;;;;;5028983;28;20934;-77
2022/05/03 04:09:20;;;;;;;13.83;10.93;;;8.50;99.90;;;;;;5011121;28;20470;-77
2022/05/03 04:11:48;;;;;;;13.37;11.97;;;8.50;99.90;;;;;;5010867;28;20191;-76
2022/05/03 04:14:15;;;;;;;13.60;10.80;;;8.50;99.90;;;;;;5027511;28;20192;-75
2022/05/03 04:16:41;;;;;;;12.67;10.73;;;8.50;99.90;;;;;;5009655;28;20438;-76
2022/05/03 04:19:08;;;;;;;13.13;11.70;;;8.50;99.90;;;;;;5009288;28;20505;-77
2022/05/03 04:21:34;;;;;;;13.63;11.70;;;8.60;99.90;;;;;;5027373;28;20425;-77
2022/05/03 04:24:00;;;;;;;12.90;11.60;;;8.60;99.90;;;;;;5009533;28;20467;-76
2022/05/03 04:26:27;;;;;;;15.63;10.50;;;8.60;99.90;;;;;;5009926;28;20445;-76
2022/05/03 04:28:57;;;;;;;12.43;10.63;;;8.60;99.90;;;;;;5009617;28;21027;-76
2022/05/03 04:31:27;;;;;;;18.90;11.23;;;8.60;99.90;;;;;;5009762;28;21166;-76
2022/05/03 04:33:54;;;;;;;12.87;11.47;;;8.50;99.90;;;;;;5027554;28;20926;-77
2022/05/03 04:36:21;;;;;;;12.00;10.80;;;8.60;99.90;;;;;;5027907;28;20794;-77
2022/05/03 04:38:49;;;;;;;12.80;11.40;;;8.50;99.90;;;;;;5009878;28;20452;-77
2022/05/03 04:41:15;;;;;;;14.70;11.70;;;8.60;99.90;;;;;;4993715;28;20497;-77
2022/05/03 04:43:42;;;;;;;13.40;11.20;;;8.60;99.90;;;;;;5028071;28;20472;-77
2022/05/03 04:46:07;;;;;;;29.77;27.10;;;8.60;99.90;;;;;;5028125;28;20886;-76
2022/05/03 04:48:33;;;;;;;26.93;24.33;;;8.60;99.90;;;;;;5032850;28;20447;-76
2022/05/03 04:50:59;;;;;;;18.63;15.87;;;8.70;99.90;;;;;;5033672;28;20180;-77
2022/05/03 04:53:24;;;;;;;14.77;13.03;;;8.70;99.90;;;;;;5014218;28;20195;-77
2022/05/03 04:55:50;;;;;;;20.30;12.60;;;8.80;99.90;;;;;;5014180;28;20180;-76
2022/05/03 04:58:16;;;;;;;12.43;11.13;;;8.80;99.90;;;;;;4997439;28;20219;-77
2022/05/03 05:00:45;;;;;;;14.97;12.20;;;8.80;99.90;;;;;;4997380;28;20438;-77
2022/05/03 05:03:13;;;;;;;16.10;12.80;;;8.90;99.90;;;;;;5031540;28;20185;-78
2022/05/03 05:05:39;;;;;;;16.20;12.60;;;8.80;99.90;;;;;;5031523;28;20991;-77
2022/05/03 05:08:07;;;;;;;12.93;11.60;;;8.80;99.90;;;;;;5013757;28;20447;-77
2022/05/03 05:10:33;;;;;;;16.03;11.60;;;8.90;99.90;;;;;;5031708;28;20199;-77
2022/05/03 05:13:00;;;;;;;16.30;11.43;;;8.90;99.90;;;;;;5031454;28;20525;-77
2022/05/03 05:15:27;;;;;;;13.97;12.10;;;8.90;99.90;;;;;;5013610;28;20438;-77
2022/05/03 05:17:56;;;;;;;13.80;11.00;;;9.00;99.90;;;;;;5031355;28;20450;-78
2022/05/03 05:20:22;;;;;;;22.17;12.27;;;9.10;99.90;;;;;;5031357;28;20511;-76
2022/05/03 05:22:47;;;;;;;16.60;12.00;;;9.30;99.90;;;;;;5031291;28;20506;-76
2022/05/03 05:25:13;;;;;;;13.90;11.53;;;9.40;99.90;;;;;;5030993;28;20476;-77
2022/05/03 05:27:40;;;;;;;15.93;11.60;;;9.60;99.90;;;;;;5030925;28;20191;-76
2022/05/03 05:30:07;;;;;;;13.33;11.23;;;9.80;99.90;;;;;;5030393;28;20459;-76
2022/05/03 05:32:37;;;;;;;13.10;11.03;;;9.90;99.90;;;;;;5012491;28;20447;-76
2022/05/03 05:35:04;;;;;;;17.27;13.00;;;10.10;99.90;;;;;;5012934;28;20873;-76
2022/05/03 05:37:30;;;;;;;14.80;11.23;;;10.20;99.90;;;;;;5030208;28;20446;-76
2022/05/03 05:39:56;;;;;;;12.00;10.10;;;10.20;99.90;;;;;;5012561;28;20432;-76
2022/05/03 05:42:22;;;;;;;11.40;10.30;;;10.40;99.90;;;;;;5012422;28;20943;-76
2022/05/03 05:44:47;;;;;;;13.03;9.80;;;10.60;99.90;;;;;;5030233;28;20274;-76
2022/05/03 05:47:14;;;;;;;11.33;10.07;;;10.70;99.90;;;;;;5030373;28;20256;-76
2022/05/03 05:49:40;;;;;;;24.57;10.83;;;10.80;99.90;;;;;;5030180;28;20207;-76
2022/05/03 05:54:53;;;;;;;11.10;9.30;;;11.00;99.90;;;;;;5030501;28;20423;-76
2022/05/03 05:57:19;;;;;;;11.33;10.20;;;11.20;99.90;;;;;;5030035;28;20771;-77
2022/05/03 05:59:45;;;;;;;13.53;10.20;;;11.50;99.90;;;;;;4995748;28;20603;-77
2022/05/03 06:02:10;;;;;;;11.50;10.30;;;11.60;99.90;;;;;;5014336;28;20519;-76
2022/05/03 06:04:36;;;;;;;11.93;10.60;;;11.70;99.90;;;;;;5033406;28;20210;-76
2022/05/03 06:07:02;;;;;;;11.03;9.60;;;11.80;99.90;;;;;;4998512;28;20647;-76
2022/05/03 06:09:27;;;;;;;11.97;10.77;;;12.00;99.90;;;;;;5032538;28;20204;-75
2022/05/03 06:11:53;;;;;;;20.17;11.07;;;12.20;99.90;;;;;;5017452;28;20194;-75
2022/05/03 06:14:18;;;;;;;11.33;10.13;;;12.30;99.90;;;;;;5034461;28;20200;-76
2022/05/03 06:16:55;;;;;;;16.60;10.27;;;12.50;99.90;;;;;;5030926;28;20197;-75
2022/05/03 06:19:21;;;;;;;12.70;10.03;;;12.70;99.90;;;;;;5030225;28;20213;-76
2022/05/03 06:21:47;;;;;;;12.10;10.67;;;12.90;99.90;;;;;;5029641;28;20954;-76
2022/05/03 06:24:13;;;;;;;13.20;11.53;;;13.10;99.90;;;;;;5029602;28;20469;-76
2022/05/03 06:26:39;;;;;;;13.33;10.10;;;13.20;99.90;;;;;;5029688;28;20444;-75
2022/05/03 06:29:08;;;;;;;10.73;9.30;;;13.40;99.90;;;;;;5011518;28;20452;-76
2022/05/03 06:31:44;;;;;;;11.67;9.90;;;13.50;99.90;;;;;;5029652;28;20419;-75
2022/05/03 06:34:10;;;;;;;11.63;10.50;;;13.70;99.90;;;;;;5029846;28;20416;-76
2022/05/03 06:36:36;;;;;;;11.13;10.03;;;13.80;99.90;;;;;;5029783;28;20434;-76
2022/05/03 06:39:03;;;;;;;10.97;9.50;;;14.00;99.90;;;;;;5029863;28;20499;-76
2022/05/03 06:41:29;;;;;;;12.23;10.93;;;14.20;99.90;;;;;;5029985;28;20415;-76
2022/05/03 06:43:57;;;;;;;11.37;10.20;;;14.30;99.90;;;;;;5029744;28;20484;-77
2022/05/03 06:46:27;;;;;;;12.00;10.67;;;14.40;99.90;;;;;;5030037;28;20186;-77
2022/05/03 06:48:53;;;;;;;11.60;10.30;;;14.50;99.90;;;;;;5011771;28;20450;-76
2022/05/03 06:51:19;;;;;;;15.60;10.90;;;14.60;99.90;;;;;;5012248;28;20418;-76
2022/05/03 06:53:45;;;;;;;15.03;11.17;;;14.70;99.90;;;;;;5029661;28;20184;-76
2022/05/03 06:56:11;;;;;;;16.87;10.80;;;14.90;99.90;;;;;;5029609;28;20419;-74
2022/05/03 06:58:37;;;;;;;13.63;10.90;;;15.10;99.90;;;;;;5029481;28;20527;-76
2022/05/03 07:01:09;;;;;;;15.60;10.90;;;15.10;99.90;;;;;;5029459;28;20196;-76
2022/05/03 07:03:35;;;;;;;11.30;10.10;;;15.20;99.90;;;;;;5011047;28;20226;-76
2022/05/03 07:06:01;;;;;;;11.70;10.50;;;15.40;99.90;;;;;;5028959;28;20420;-75
2022/05/03 07:08:26;;;;;;;11.53;10.43;;;15.40;99.90;;;;;;5028657;28;21089;-76
2022/05/03 07:10:52;;;;;;;10.27;9.10;;;15.50;99.90;;;;;;5028270;28;20629;-76
2022/05/03 07:13:23;;;;;;;12.10;8.13;;;15.60;99.90;;;;;;5028731;28;20741;-76
2022/05/03 07:15:53;;;;;;;10.73;9.47;;;15.80;99.90;;;;;;5028449;28;20273;-75
2022/05/03 07:23:56;;;;;;;11.43;9.33;;;16.00;99.90;;;;;;5028580;28;20532;-76
2022/05/03 07:26:21;;;;;;;11.13;8.40;;;16.00;99.90;;;;;;5028123;28;20471;-74
2022/05/03 07:28:48;;;;;;;10.30;8.80;;;16.10;99.90;;;;;;5028096;28;20212;-77
2022/05/03 07:31:15;;;;;;;10.80;9.53;;;16.10;99.90;;;;;;5028274;28;20184;-75
2022/05/03 07:33:41;;;;;;;9.50;8.47;;;16.30;99.90;;;;;;5028510;28;20427;-74
2022/05/03 07:36:07;;;;;;;10.00;8.87;;;16.30;99.90;;;;;;5010912;28;20906;-74
2022/05/03 07:38:33;;;;;;;12.03;9.10;;;16.40;99.90;;;;;;5028569;28;20444;-74
2022/05/03 07:40:59;;;;;;;10.27;9.27;;;16.40;99.90;;;;;;5028521;28;20224;-74
2022/05/03 07:43:25;;;;;;;9.20;8.30;;;16.50;99.90;;;;;;5028434;28;20193;-75
2022/05/03 07:45:51;;;;;;;9.40;8.40;;;16.60;99.90;;;;;;5028618;28;20428;-75
2022/05/03 07:48:16;;;;;;;9.47;8.60;;;16.70;99.90;;;;;;5010849;28;20519;-74
2022/05/03 07:50:44;;;;;;;16.10;8.23;;;16.80;99.90;;;;;;5028440;28;20237;-74
2022/05/03 07:53:09;;;;;;;10.67;9.00;;;16.90;99.90;;;;;;5028571;28;20666;-74
2022/05/03 07:55:35;;;;;;;9.43;8.17;;;17.00;99.90;;;;;;5028643;28;20428;-74
2022/05/03 07:58:00;;;;;;;8.93;8.03;;;17.10;99.90;;;;;;5028394;28;20291;-77
2022/05/03 08:00:26;;;;;;;9.40;8.17;;;17.20;99.90;;;;;;5028435;28;20201;-77
2022/05/03 08:02:52;;;;;;;10.10;9.10;;;17.20;99.90;;;;;;5028410;28;20182;-76
2022/05/03 08:05:18;;;;;;;9.53;7.73;;;17.40;99.90;;;;;;5010291;28;20204;-75
2022/05/03 08:07:44;;;;;;;16.00;7.67;;;17.40;99.90;;;;;;5027933;28;20209;-75
2022/05/03 08:10:10;;;;;;;7.60;6.77;;;17.60;99.90;;;;;;5010420;28;20277;-74
2022/05/03 08:12:36;;;;;;;10.27;8.00;;;17.70;99.90;;;;;;5028099;28;20420;-74
2022/05/03 08:15:05;;;;;;;8.00;7.20;;;17.80;99.90;;;;;;5010199;28;20441;-75
2022/05/03 08:17:34;;;;;;;8.27;7.47;;;18.00;99.90;;;;;;5027554;28;20500;-75
2022/05/03 08:20:00;;;;;;;8.33;7.50;;;18.00;99.90;;;;;;5028239;28;20520;-75
2022/05/03 08:22:25;;;;;;;8.63;7.20;;;18.00;99.90;;;;;;5011712;28;20665;-75
2022/05/03 08:24:52;;;;;;;7.87;7.07;;;18.20;99.90;;;;;;5027756;28;20644;-74
2022/05/03 08:27:18;;;;;;;8.50;6.90;;;18.30;99.90;;;;;;5027737;28;20196;-75
2022/05/03 08:29:44;;;;;;;9.23;6.97;;;18.50;99.90;;;;;;5009298;28;20450;-74
2022/05/03 08:32:10;;;;;;;6.80;6.20;;;18.50;99.90;;;;;;4993055;28;20431;-75
2022/05/03 08:34:35;;;;;;;6.80;5.77;;;18.60;99.90;;;;;;5009472;28;20187;-75
2022/05/03 08:42:33;;;;;;;6.70;6.10;;;19.10;99.70;;;;;;5028131;28;20422;-74
2022/05/03 08:45:01;;;;;;;6.03;5.63;;;19.20;99.90;;;;;;5027609;28;20464;-75
2022/05/03 08:47:28;;;;;;;7.00;6.30;;;19.40;99.90;;;;;;5027784;28;20441;-77
2022/05/03 08:50:06;;;;;;;7.13;6.50;;;19.50;99.90;;;;;;5027825;28;20907;-77
2022/05/03 08:52:46;;;;;;;8.87;5.57;;;19.70;99.90;;;;;;5027257;28;20419;-76
2022/05/03 08:55:12;;;;;;;7.10;5.83;;;19.90;99.90;;;;;;5027697;28;20422;-76
2022/05/03 08:57:38;;;;;;;6.33;5.73;;;20.00;97.10;;;;;;5009631;28;20435;-76
2022/05/03 09:00:07;;;;;;;6.20;5.70;;;20.20;98.40;;;;;;5027434;28;20244;-76
2022/05/03 09:02:39;;;;;;;5.30;4.80;;;20.50;97.60;;;;;;5027558;28;20438;-76
2022/05/03 09:05:05;;;;;;;14.60;5.20;;;20.20;92.70;;;;;;5009422;28;20506;-77
2022/05/03 09:07:34;;;;;;;5.93;5.00;;;20.50;94.90;;;;;;5027517;28;20943;-76
2022/05/03 09:10:16;;;;;;;6.43;4.60;;;20.80;97.10;;;;;;5009807;28;20437;-76
2022/05/03 09:12:44;;;;;;;8.70;5.10;;;21.30;95.60;;;;;;5009611;28;20430;-77
2022/05/03 09:15:11;;;;;;;5.43;4.00;;;21.60;93.10;;;;;;5027456;28;20426;-76
2022/05/03 09:17:42;;;;;;;8.70;4.87;;;21.90;91.10;;;;;;5009920;28;20420;-76
2022/05/03 09:25:45;;;;;;;4.70;4.30;;;22.40;91.20;;;;;;5027482;28;20969;-76
2022/05/03 09:28:10;;;;;;;6.60;4.73;;;22.70;91.40;;;;;;5027010;28;20514;-76
2022/05/03 09:30:45;;;;;;;5.13;4.03;;;22.90;90.40;;;;;;5009029;28;20418;-76
2022/05/03 09:33:16;;;;;;;7.30;4.40;;;23.20;90.10;;;;;;5027758;28;20182;-77
2022/05/03 09:35:41;;;;;;;4.00;3.70;;;23.40;87.40;;;;;;5030247;28;20426;-77
2022/05/03 09:38:07;;;;;;;5.10;4.60;;;23.60;88.80;;;;;;5012189;28;20436;-77
2022/05/03 09:40:45;;;;;;;7.80;4.30;;;23.80;88.40;;;;;;5012573;28;20534;-76
2022/05/03 09:43:11;;;;;;;4.27;3.43;;;24.20;88.80;;;;;;5030370;28;20184;-77
2022/05/03 09:45:37;;;;;;;4.23;3.47;;;24.20;74.70;;;;;;5030022;28;20549;-77
2022/05/03 09:48:04;;;;;;;3.97;3.33;;;23.90;73.20;;;;;;5030077;28;20435;-76
2022/05/03 09:50:30;;;;;;;6.87;4.00;;;24.10;76.20;;;;;;5030126;28;20416;-77
2022/05/03 09:52:57;;;;;;;4.60;4.13;;;24.30;76.40;;;;;;5030445;28;20411;-76
2022/05/03 09:55:30;;;;;;;5.20;3.87;;;24.40;73.70;;;;;;5011901;28;20184;-77
2022/05/03 09:58:02;;;;;;;6.30;4.10;;;24.50;72.10;;;;;;5030005;28;20436;-77
2022/05/03 10:00:30;;;;;;;3.70;3.40;;;24.70;74.10;;;;;;5012212;28;20673;-77
2022/05/03 10:02:57;;;;;;;3.50;3.20;;;24.70;73.20;;;;;;5030076;28;20504;-77
2022/05/03 10:05:25;;;;;;;6.90;4.00;;;25.00;75.60;;;;;;5012446;28;20528;-77
2022/05/03 10:07:52;;;;;;;6.50;3.40;;;25.10;74.10;;;;;;5011778;28;20515;-77
2022/05/03 10:10:19;;;;;;;4.43;4.03;;;25.20;72.10;;;;;;5012681;28;20428;-77
2022/05/03 10:12:46;;;;;;;4.70;4.40;;;25.40;71.80;;;;;;5011983;28;20525;-76
2022/05/03 10:15:14;;;;;;;4.13;3.73;;;25.30;70.50;;;;;;5030192;28;20777;-75
2022/05/03 10:20:42;;;;;;;5.23;4.20;;;25.40;73.70;;;;;;5030074;28;20422;-74
2022/05/03 10:23:30;;;;;;;3.90;3.47;;;25.50;73.30;;;;;;5011927;28;20467;-75
2022/05/03 10:25:59;;;;;;;3.73;3.43;;;25.50;68.50;;;;;;5029618;28;20553;-75
2022/05/03 10:28:45;;;;;;;4.53;4.13;;;25.40;69.70;;;;;;5029610;28;20437;-76
2022/05/03 10:31:13;;;;;;;3.83;3.53;;;25.60;71.30;;;;;;5029520;28;20835;-75
2022/05/03 10:33:40;;;;;;;4.30;4.00;;;25.60;67.20;;;;;;5012414;28;20466;-76
2022/05/03 10:36:31;;;;;;;5.80;4.60;;;25.90;69.00;;;;;;5032691;28;20470;-76
2022/05/03 10:39:20;;;;;;;10.20;4.13;;;25.90;65.70;;;;;;5034761;28;20432;-76
2022/05/03 10:42:01;;;;;;;4.10;3.80;;;26.20;65.90;;;;;;5017931;28;20411;-76
2022/05/03 10:44:56;;;;;;;4.50;4.00;;;26.10;63.50;;;;;;5013864;28;21113;-77
2022/05/03 10:47:44;;;;;;;3.50;3.20;;;26.40;64.50;;;;;;5031767;28;20493;-78
2022/05/03 10:50:13;;;;;;;4.47;3.63;;;26.40;63.10;;;;;;5031621;28;20426;-76
2022/05/03 10:52:58;;;;;;;6.60;3.17;;;26.40;60.00;;;;;;5030509;28;20414;-77
2022/05/03 10:55:26;;;;;;;4.37;3.30;;;25.70;62.40;;;;;;5016075;28;20466;-77
2022/05/03 10:58:31;;;;;;;4.77;4.20;;;24.90;62.90;;;;;;5011862;28;20478;-77
2022/05/03 11:01:05;;;;;;;3.93;3.50;;;24.10;63.70;;;;;;5029063;28;20432;-77
2022/05/03 11:03:52;;;;;;;6.80;2.97;;;23.60;68.30;;;;;;5029495;28;20419;-77
2022/05/03 11:06:26;;;;;;;5.20;3.23;;;23.90;71.60;;;;;;5010824;28;20434;-79
2022/05/03 11:11:44;;;;;;;3.27;3.00;;;25.20;65.70;;;;;;5029327;28;20411;-78
2022/05/03 11:14:17;;;;;;;3.03;2.83;;;25.80;65.70;;;;;;5029780;28;20424;-75
2022/05/03 11:16:44;;;;;;;5.27;3.33;;;26.40;64.60;;;;;;5029719;28;20500;-77
2022/05/03 11:19:12;;;;;;;3.13;2.93;;;26.60;63.50;;;;;;5011924;28;20446;-76
2022/05/03 11:21:38;;;;;;;3.70;3.40;;;26.90;62.50;;;;;;5029717;28;20427;-76
2022/05/03 11:24:05;;;;;;;3.60;3.30;;;25.90;62.50;;;;;;5029724;28;20502;-76
2022/05/03 11:26:31;;;;;;;4.60;3.33;;;25.10;64.50;;;;;;5029735;28;20795;-77
2022/05/03 11:28:58;;;;;;;3.30;3.00;;;24.10;66.20;;;;;;5011977;28;20485;-77
2022/05/03 11:31:26;;;;;;;6.40;4.00;;;23.50;68.80;;;;;;5011863;28;20449;-76
2022/05/03 11:33:53;;;;;;;4.47;3.73;;;23.00;68.90;;;;;;5029962;28;20422;-77
2022/05/03 11:36:20;;;;;;;3.83;3.47;;;22.50;70.20;;;;;;5029803;28;20425;-77
2022/05/03 11:38:55;;;;;;;6.03;3.80;;;21.90;71.60;;;;;;5029753;28;20514;-76
2022/05/03 11:41:30;;;;;;;4.57;2.60;;;21.10;75.10;;;;;;5029763;28;20848;-77
2022/05/03 11:43:56;;;;;;;3.23;2.93;;;20.30;77.40;;;;;;5011782;28;20455;-76
2022/05/03 11:46:23;;;;;;;5.30;3.40;;;19.80;77.50;;;;;;5029876;28;20415;-77
2022/05/03 11:49:01;;;;;;;4.23;3.40;;;19.10;85.20;;;;;;5029520;28;21039;-77
2022/05/03 11:57:07;;;;;;;3.27;2.97;;;17.80;93.00;;;;;;5030016;28;20418;-77
2022/05/03 11:59:33;;;;;;;2.97;2.73;;;17.60;92.30;;;;;;5029091;28;20836;-77
2022/05/03 12:02:38;;;;;;;4.90;3.30;;;17.50;92.70;;;;;;5028979;28;20438;-77
2022/05/03 12:05:07;;;;;;;3.47;3.17;;;17.50;96.40;;;;;;4932104;29;20678;-76
2022/05/03 12:07:36;;;;;;;3.83;3.03;;;17.40;97.70;;;;;;4947973;29;20429;-77
2022/05/03 12:10:22;;;;;;;3.63;3.17;;;17.10;98.40;;;;;;4989067;28;20429;-77
2022/05/03 12:13:09;;;;;;;3.23;2.93;;;17.00;98.60;;;;;;5013954;28;20802;-76
2022/05/03 12:15:40;;;;;;;6.83;2.83;;;17.10;96.70;;;;;;5028387;28;20504;-77
2022/05/03 12:18:15;;;;;;;3.47;3.17;;;17.30;99.40;;;;;;5028202;28;20447;-76
2022/05/03 12:20:54;;;;;;;5.30;2.87;;;17.40;97.00;;;;;;5028082;28;20416;-78
2022/05/03 12:23:22;;;;;;;7.63;3.37;;;17.50;96.50;;;;;;5027997;28;20468;-77
2022/05/03 12:25:53;;;;;;;2.90;2.70;;;17.60;96.10;;;;;;5027939;28;20487;-76
2022/05/03 12:28:19;;;;;;;4.37;3.53;;;17.50;94.90;;;;;;5028182;28;20461;-78
2022/05/03 12:30:56;;;;;;;4.00;2.97;;;17.60;96.80;;;;;;5028004;28;20436;-76
2022/05/03 12:33:28;;;;;;;4.57;3.03;;;17.50;96.30;;;;;;5027883;28;20512;-76
2022/05/03 12:35:54;;;;;;;4.53;2.90;;;17.70;96.90;;;;;;5009744;28;20439;-76
2022/05/03 12:38:24;;;;;;;3.07;2.87;;;17.70;97.60;;;;;;5009920;28;20524;-76
2022/05/03 12:41:01;;;;;;;3.33;3.00;;;17.80;96.20;;;;;;5027795;28;20429;-77
2022/05/03 12:43:32;;;;;;;3.13;2.90;;;17.90;96.70;;;;;;5010470;28;20422;-77
2022/05/03 12:46:03;;;;;;;2.83;2.63;;;18.10;96.00;;;;;;5027530;28;20406;-77
2022/05/03 12:48:30;;;;;;;6.63;3.00;;;18.30;95.70;;;;;;5027290;28;20440;-77
2022/05/03 12:50:56;;;;;;;3.17;2.23;;;18.40;93.90;;;;;;5027496;28;20968;-76
2022/05/03 12:53:35;;;;;;;3.10;2.73;;;18.70;95.30;;;;;;5027711;28;20416;-77
2022/05/03 12:58:47;;;;;;;3.23;2.93;;;19.10;94.60;;;;;;5012935;28;20499;-77
2022/05/03 13:01:13;;;;;;;3.20;2.90;;;19.40;94.20;;;;;;5028045;28;20428;-77
2022/05/03 13:03:42;;;;;;;2.87;2.50;;;19.30;92.20;;;;;;5009896;28;20483;-77
2022/05/03 13:06:08;;;;;;;12.03;2.53;;;19.60;93.30;;;;;;5009999;28;20467;-77
2022/05/03 13:08:34;;;;;;;3.20;2.90;;;20.10;92.70;;;;;;5011388;28;20944;-78
2022/05/03 13:10:59;;;;;;;3.63;2.87;;;20.30;88.60;;;;;;5013935;28;20480;-77
2022/05/03 13:13:25;;;;;;;3.07;2.50;;;20.30;90.60;;;;;;4997637;28;20223;-76
2022/05/03 13:15:52;;;;;;;4.53;2.77;;;20.30;90.40;;;;;;5013807;28;20229;-77
2022/05/03 13:18:18;;;;;;;5.03;2.63;;;20.60;88.80;;;;;;4997626;28;20447;-76
2022/05/03 13:20:43;;;;;;;4.60;2.90;;;20.70;89.50;;;;;;5031712;28;20425;-76
2022/05/03 13:23:10;;;;;;;4.10;2.53;;;20.40;90.00;;;;;;5013816;28;20241;-77
2022/05/03 13:25:36;;;;;;;4.33;3.17;;;20.10;90.20;;;;;;5031342;28;21004;-77
2022/05/03 13:28:02;;;;;;;4.20;3.60;;;20.20;92.10;;;;;;5031520;28;20446;-76
2022/05/03 13:30:28;;;;;;;4.23;3.30;;;20.00;91.30;;;;;;5031445;28;20191;-77
2022/05/03 13:32:54;;;;;;;5.53;4.17;;;19.70;93.00;;;;;;5013218;28;20441;-77
2022/05/03 13:40:28;;;;;;;4.90;4.10;;;19.40;95.70;;;;;;5013534;28;20434;-77
2022/05/03 13:40:51;;;;;;;3.97;3.57;;;19.20;96.50;;;;;;5030539;28;20434;-77
2022/05/03 13:43:17;;;;;;;4.83;4.17;;;19.30;95.30;;;;;;5012646;28;20474;-76
2022/05/03 13:45:44;;;;;;;10.50;3.97;;;19.40;96.10;;;;;;5030653;28;21261;-77